Ansley, Nebraska
Current Conditions -  °F | °C
As of 5:53 AM on Sunday 25 Jan 2015 (Local Time) from KBBW Reporting Station
Scattered Clouds Scattered Clouds  
Wind Chill: 26°   Ceiling: Unl
Heat Index: 38°   Visibility: 10mi
Dew Point: 29°   Wind: 29mph
Humidity: 70%   Direction: 330°NNW
Pressure: 29.92"   Gusts: 38mph
Location:  41.29°N, 99.38°W
Report Text: KBBW 251153Z AUTO 33025G33KT 10SM SCT032 03/M02 A2992 RMK AO2 PK WND 33038/1056 SLP139 T00331017 10072 20033 53020
Loading
Personal Weather Stations






























Interactive Weather Map New forecast layout! Learn more

10-Day Weather Forecast

Advertisements
Track Severe Weather on mobile